sensor_id;sensor_type;location;lat;lon;timestamp;pressure;altitude;pressure_sealevel;temperature;humidity
11448;BME280;43755;49.736;8.734;2023-05-16T00:01:37;97615.63;;;11.82;100.00
11448;BME280;43755;49.736;8.734;2023-05-16T00:03:38;97613.13;;;11.79;100.00
11448;BME280;43755;49.736;8.734;2023-05-16T00:05:41;97615.63;;;11.82;100.00
11448;BME280;43755;49.736;8.734;2023-05-16T00:07:44;97615.72;;;11.81;100.00
11448;BME280;43755;49.736;8.734;2023-05-16T00:09:45;97610.47;;;11.79;100.00
11448;BME280;43755;49.736;8.734;2023-05-16T00:11:47;97607.69;;;11.82;100.00
11448;BME280;43755;49.736;8.734;2023-05-16T00:13:50;97617.34;;;11.83;100.00
11448;BME280;43755;49.736;8.734;2023-05-16T00:15:52;97614.00;;;11.80;100.00
11448;BME280;43755;49.736;8.734;2023-05-16T00:17:55;97618.34;;;11.81;100.00
11448;BME280;43755;49.736;8.734;2023-05-16T00:19:58;97613.13;;;11.79;100.00
11448;BME280;43755;49.736;8.734;2023-05-16T00:21:59;97609.72;;;11.77;100.00
11448;BME280;43755;49.736;8.734;2023-05-16T00:24:01;97611.66;;;11.74;100.00
11448;BME280;43755;49.736;8.734;2023-05-16T00:26:03;97610.72;;;11.75;100.00
11448;BME280;43755;49.736;8.734;2023-05-16T00:28:04;97606.50;;;11.71;100.00
11448;BME280;43755;49.736;8.734;2023-05-16T00:30:08;97608.16;;;11.73;100.00
11448;BME280;43755;49.736;8.734;2023-05-16T00:32:10;97610.81;;;11.73;100.00
11448;BME280;43755;49.736;8.734;2023-05-16T00:34:11;97613.53;;;11.72;100.00
11448;BME280;43755;49.736;8.734;2023-05-16T00:36:13;97614.34;;;11.72;100.00
11448;BME280;43755;49.736;8.734;2023-05-16T00:38:14;97611.72;;;11.72;100.00
11448;BME280;43755;49.736;8.734;2023-05-16T00:40:16;97616.72;;;11.61;100.00
11448;BME280;43755;49.736;8.734;2023-05-16T00:42:18;97616.91;;;11.58;100.00
11448;BME280;43755;49.736;8.734;2023-05-16T00:44:20;97609.09;;;11.55;100.00
11448;BME280;43755;49.736;8.734;2023-05-16T00:46:22;97609.63;;;11.62;100.00
11448;BME280;43755;49.736;8.734;2023-05-16T00:48:24;97608.16;;;11.56;100.00
11448;BME280;43755;49.736;8.734;2023-05-16T00:50:25;97610.13;;;11.53;100.00
11448;BME280;43755;49.736;8.734;2023-05-16T00:52:27;97607.56;;;11.51;100.00
11448;BME280;43755;49.736;8.734;2023-05-16T00:54:29;97604.13;;;11.49;100.00
11448;BME280;43755;49.736;8.734;2023-05-16T00:56:30;97600.88;;;11.44;100.00
11448;BME280;43755;49.736;8.734;2023-05-16T00:58:32;97600.97;;;11.42;100.00
11448;BME280;43755;49.736;8.734;2023-05-16T01:00:34;97607.88;;;11.45;100.00
11448;BME280;43755;49.736;8.734;2023-05-16T01:02:38;97610.84;;;11.39;100.00
11448;BME280;43755;49.736;8.734;2023-05-16T01:04:39;97607.34;;;11.38;100.00
11448;BME280;43755;49.736;8.734;2023-05-16T01:06:41;97616.31;;;11.36;100.00
11448;BME280;43755;49.736;8.734;2023-05-16T01:08:43;97607.28;;;11.40;100.00
11448;BME280;43755;49.736;8.734;2023-05-16T01:10:49;97613.56;;;11.37;100.00
11448;BME280;43755;49.736;8.734;2023-05-16T01:13:00;97617.25;;;11.35;100.00
11448;BME280;43755;49.736;8.734;2023-05-16T01:15:08;97616.16;;;11.39;100.00
11448;BME280;43755;49.736;8.734;2023-05-16T01:17:18;97616.84;;;11.42;100.00
11448;BME280;43755;49.736;8.734;2023-05-16T01:19:31;97615.81;;;11.45;100.00
11448;BME280;43755;49.736;8.734;2023-05-16T01:21:47;97618.66;;;11.42;100.00
11448;BME280;43755;49.736;8.734;2023-05-16T01:23:51;97618.41;;;11.46;100.00
11448;BME280;43755;49.736;8.734;2023-05-16T01:26:15;97619.34;;;11.45;100.00
11448;BME280;43755;49.736;8.734;2023-05-16T01:28:18;97619.59;;;11.41;100.00
11448;BME280;43755;49.736;8.734;2023-05-16T01:30:20;97608.59;;;11.48;100.00
11448;BME280;43755;49.736;8.734;2023-05-16T01:32:21;97618.66;;;11.42;100.00
11448;BME280;43755;49.736;8.734;2023-05-16T01:34:23;97618.41;;;11.46;100.00
11448;BME280;43755;49.736;8.734;2023-05-16T01:36:30;97615.50;;;11.51;100.00
11448;BME280;43755;49.736;8.734;2023-05-16T01:38:37;97616.69;;;11.45;100.00
11448;BME280;43755;49.736;8.734;2023-05-16T01:40:45;97629.38;;;11.39;100.00
11448;BME280;43755;49.736;8.734;2023-05-16T01:42:51;97622.47;;;11.36;100.00
11448;BME280;43755;49.736;8.734;2023-05-16T01:44:59;97622.97;;;11.43;100.00
11448;BME280;43755;49.736;8.734;2023-05-16T01:47:09;97623.78;;;11.45;100.00
11448;BME280;43755;49.736;8.734;2023-05-16T01:49:15;97619.72;;;11.38;100.00
11448;BME280;43755;49.736;8.734;2023-05-16T01:51:21;97618.09;;;11.35;100.00
11448;BME280;43755;49.736;8.734;2023-05-16T01:53:27;97618.88;;;11.37;100.00
11448;BME280;43755;49.736;8.734;2023-05-16T01:55:36;97621.94;;;11.30;100.00
11448;BME280;43755;49.736;8.734;2023-05-16T01:57:39;97620.28;;;11.27;100.00
11448;BME280;43755;49.736;8.734;2023-05-16T01:59:43;97616.53;;;11.31;100.00
11448;BME280;43755;49.736;8.734;2023-05-16T02:01:45;97618.25;;;11.32;100.00
11448;BME280;43755;49.736;8.734;2023-05-16T02:03:46;97625.66;;;11.26;100.00
11448;BME280;43755;49.736;8.734;2023-05-16T02:05:47;97619.28;;;11.30;100.00
11448;BME280;43755;49.736;8.734;2023-05-16T02:07:49;97627.53;;;11.24;100.00
11448;BME280;43755;49.736;8.734;2023-05-16T02:09:50;97630.31;;;11.21;100.00
11448;BME280;43755;49.736;8.734;2023-05-16T02:11:52;97633.16;;;11.18;100.00
11448;BME280;43755;49.736;8.734;2023-05-16T02:13:53;97624.97;;;11.22;100.00
11448;BME280;43755;49.736;8.734;2023-05-16T02:15:56;97634.44;;;11.26;100.00
11448;BME280;43755;49.736;8.734;2023-05-16T02:17:57;97626.44;;;11.28;100.00
11448;BME280;43755;49.736;8.734;2023-05-16T02:19:59;97634.69;;;11.22;100.00
11448;BME280;43755;49.736;8.734;2023-05-16T02:22:05;97636.47;;;11.21;100.00
11448;BME280;43755;49.736;8.734;2023-05-16T02:24:07;97639.50;;;11.14;100.00
11448;BME280;43755;49.736;8.734;2023-05-16T02:26:08;97628.09;;;11.13;100.00
11448;BME280;43755;49.736;8.734;2023-05-16T02:28:10;97635.00;;;11.16;100.00
11448;BME280;43755;49.736;8.734;2023-05-16T02:30:11;97636.19;;;11.10;100.00
11448;BME280;43755;49.736;8.734;2023-05-16T02:32:14;97628.16;;;11.12;100.00
11448;BME280;43755;49.736;8.734;2023-05-16T02:34:16;97630.25;;;11.05;100.00
11448;BME280;43755;49.736;8.734;2023-05-16T02:36:18;97624.19;;;11.03;100.00
11448;BME280;43755;49.736;8.734;2023-05-16T02:38:20;97627.91;;;10.99;100.00
11448;BME280;43755;49.736;8.734;2023-05-16T02:40:22;97625.72;;;10.90;100.00
11448;BME280;43755;49.736;8.734;2023-05-16T02:42:24;97631.00;;;10.90;100.00
11448;BME280;43755;49.736;8.734;2023-05-16T02:44:26;97627.06;;;10.81;100.00
11448;BME280;43755;49.736;8.734;2023-05-16T02:46:29;97632.47;;;10.78;100.00
11448;BME280;43755;49.736;8.734;2023-05-16T02:48:31;97638.56;;;10.80;100.00
11448;BME280;43755;49.736;8.734;2023-05-16T02:50:33;97633.09;;;10.66;100.00
11448;BME280;43755;49.736;8.734;2023-05-16T02:52:34;97629.38;;;10.70;100.00
11448;BME280;43755;49.736;8.734;2023-05-16T02:54:36;97629.66;;;10.64;100.00
11448;BME280;43755;49.736;8.734;2023-05-16T02:56:37;97627.09;;;10.62;100.00
11448;BME280;43755;49.736;8.734;2023-05-16T02:58:39;97626.47;;;10.57;100.00
11448;BME280;43755;49.736;8.734;2023-05-16T03:00:40;97627.44;;;10.55;100.00
11448;BME280;43755;49.736;8.734;2023-05-16T03:02:42;97643.31;;;10.55;100.00
11448;BME280;43755;49.736;8.734;2023-05-16T03:04:45;97632.91;;;10.52;100.00
11448;BME280;43755;49.736;8.734;2023-05-16T03:06:47;97641.63;;;10.54;100.00
11448;BME280;43755;49.736;8.734;2023-05-16T03:08:50;97634.63;;;10.53;100.00
11448;BME280;43755;49.736;8.734;2023-05-16T03:10:51;97637.34;;;10.51;100.00
11448;BME280;43755;49.736;8.734;2023-05-16T03:12:53;97641.06;;;10.47;100.00
11448;BME280;43755;49.736;8.734;2023-05-16T03:14:54;97633.25;;;10.44;100.00
11448;BME280;43755;49.736;8.734;2023-05-16T03:16:55;97636.78;;;10.45;100.00
11448;BME280;43755;49.736;8.734;2023-05-16T03:18:57;97639.72;;;10.39;100.00
11448;BME280;43755;49.736;8.734;2023-05-16T03:21:00;97631.94;;;10.36;100.00
11448;BME280;43755;49.736;8.734;2023-05-16T03:23:02;97636.44;;;10.34;100.00
11448;BME280;43755;49.736;8.734;2023-05-16T03:25:07;97633.84;;;10.32;100.00
11448;BME280;43755;49.736;8.734;2023-05-16T03:27:08;97637.13;;;10.37;100.00
11448;BME280;43755;49.736;8.734;2023-05-16T03:29:10;97643.50;;;10.33;100.00
11448;BME280;43755;49.736;8.734;2023-05-16T03:31:12;97640.91;;;10.32;100.00
11448;BME280;43755;49.736;8.734;2023-05-16T03:33:13;97638.09;;;10.36;100.00
11448;BME280;43755;49.736;8.734;2023-05-16T03:35:15;97643.56;;;10.32;100.00
11448;BME280;43755;49.736;8.734;2023-05-16T03:37:18;97649.16;;;10.25;100.00
11448;BME280;43755;49.736;8.734;2023-05-16T03:39:20;97639.53;;;10.24;100.00
11448;BME280;43755;49.736;8.734;2023-05-16T03:41:21;97646.50;;;10.25;100.00
11448;BME280;43755;49.736;8.734;2023-05-16T03:43:22;97641.44;;;10.21;100.00
11448;BME280;43755;49.736;8.734;2023-05-16T03:45:24;97642.28;;;10.21;100.00
11448;BME280;43755;49.736;8.734;2023-05-16T03:47:25;97644.25;;;10.18;100.00
11448;BME280;43755;49.736;8.734;2023-05-16T03:49:29;97644.13;;;10.19;100.00
11448;BME280;43755;49.736;8.734;2023-05-16T03:51:31;97644.41;;;10.13;100.00
11448;BME280;43755;49.736;8.734;2023-05-16T03:53:33;97647.13;;;10.12;100.00
11448;BME280;43755;49.736;8.734;2023-05-16T03:55:35;97654.03;;;10.14;100.00
11448;BME280;43755;49.736;8.734;2023-05-16T03:57:36;97651.63;;;10.10;100.00
11448;BME280;43755;49.736;8.734;2023-05-16T03:59:38;97649.03;;;10.08;100.00
11448;BME280;43755;49.736;8.734;2023-05-16T04:01:39;97652.59;;;10.07;100.00
11448;BME280;43755;49.736;8.734;2023-05-16T04:03:41;97646.13;;;10.14;100.00
11448;BME280;43755;49.736;8.734;2023-05-16T04:05:42;97655.91;;;10.12;100.00
11448;BME280;43755;49.736;8.734;2023-05-16T04:07:44;97651.34;;;10.16;100.00
11448;BME280;43755;49.736;8.734;2023-05-16T04:09:46;97654.91;;;10.15;100.00
11448;BME280;43755;49.736;8.734;2023-05-16T04:11:48;97658.56;;;10.12;100.00
11448;BME280;43755;49.736;8.734;2023-05-16T04:13:49;97659.78;;;10.05;100.00
11448;BME280;43755;49.736;8.734;2023-05-16T04:15:51;97654.19;;;10.11;100.00
11448;BME280;43755;49.736;8.734;2023-05-16T04:17:52;97660.47;;;10.09;100.00
11448;BME280;43755;49.736;8.734;2023-05-16T04:19:54;97663.19;;;10.07;100.00
11448;BME280;43755;49.736;8.734;2023-05-16T04:21:55;97668.41;;;10.09;100.00
11448;BME280;43755;49.736;8.734;2023-05-16T04:23:57;97664.91;;;10.08;100.00
11448;BME280;43755;49.736;8.734;2023-05-16T04:25:59;97670.91;;;10.12;100.00
11448;BME280;43755;49.736;8.734;2023-05-16T04:28:01;97669.13;;;10.12;100.00
11448;BME280;43755;49.736;8.734;2023-05-16T04:30:03;97672.06;;;10.06;100.00
11448;BME280;43755;49.736;8.734;2023-05-16T04:32:05;97668.28;;;10.12;100.00
11448;BME280;43755;49.736;8.734;2023-05-16T04:34:07;97676.22;;;10.12;100.00
11448;BME280;43755;49.736;8.734;2023-05-16T04:36:08;97673.03;;;10.04;100.00
11448;BME280;43755;49.736;8.734;2023-05-16T04:38:09;97668.41;;;10.09;100.00
11448;BME280;43755;49.736;8.734;2023-05-16T04:40:11;97667.41;;;10.11;100.00
11448;BME280;43755;49.736;8.734;2023-05-16T04:42:14;97669.31;;;10.08;100.00
11448;BME280;43755;49.736;8.734;2023-05-16T04:44:16;97676.41;;;10.07;100.00
11448;BME280;43755;49.736;8.734;2023-05-16T04:46:18;97677.25;;;10.08;100.00
11448;BME280;43755;49.736;8.734;2023-05-16T04:48:20;97676.97;;;10.14;100.00
11448;BME280;43755;49.736;8.734;2023-05-16T04:50:21;97684.66;;;10.20;100.00
11448;BME280;43755;49.736;8.734;2023-05-16T04:52:22;97682.88;;;10.20;100.00
11448;BME280;43755;49.736;8.734;2023-05-16T04:54:24;97675.16;;;10.35;100.00
11448;BME280;43755;49.736;8.734;2023-05-16T04:56:25;97686.72;;;10.32;100.00
11448;BME280;43755;49.736;8.734;2023-05-16T04:58:28;97693.31;;;10.23;100.00
11448;BME280;43755;49.736;8.734;2023-05-16T05:00:30;97696.03;;;10.22;100.00
11448;BME280;43755;49.736;8.734;2023-05-16T05:02:31;97695.16;;;10.21;100.00
11448;BME280;43755;49.736;8.734;2023-05-16T05:04:32;97695.69;;;10.30;100.00
11448;BME280;43755;49.736;8.734;2023-05-16T05:06:34;97695.03;;;10.24;100.00
11448;BME280;43755;49.736;8.734;2023-05-16T05:08:35;97704.31;;;10.33;100.00
11448;BME280;43755;49.736;8.734;2023-05-16T05:10:37;97705.25;;;10.32;100.00
11448;BME280;43755;49.736;8.734;2023-05-16T05:12:38;97706.91;;;10.35;100.00
11448;BME280;43755;49.736;8.734;2023-05-16T05:14:41;97713.63;;;10.42;100.00
11448;BME280;43755;49.736;8.734;2023-05-16T05:16:43;97705.59;;;10.43;100.00
11448;BME280;43755;49.736;8.734;2023-05-16T05:18:44;97712.75;;;10.41;100.00
11448;BME280;43755;49.736;8.734;2023-05-16T05:20:45;97710.81;;;10.45;100.00
11448;BME280;43755;49.736;8.734;2023-05-16T05:22:47;97718.81;;;10.43;100.00
11448;BME280;43755;49.736;8.734;2023-05-16T05:24:48;97716.44;;;10.37;100.00
11448;BME280;43755;49.736;8.734;2023-05-16T05:26:51;97718.34;;;10.35;100.00
11448;BME280;43755;49.736;8.734;2023-05-16T05:28:52;97717.03;;;10.44;100.00
11448;BME280;43755;49.736;8.734;2023-05-16T05:30:55;97724.97;;;10.44;100.00
11448;BME280;43755;49.736;8.734;2023-05-16T05:32:56;97725.88;;;10.43;100.00
11448;BME280;43755;49.736;8.734;2023-05-16T05:34:58;97716.41;;;10.39;100.00
11448;BME280;43755;49.736;8.734;2023-05-16T05:36:59;97718.81;;;10.43;100.00
11448;BME280;43755;49.736;8.734;2023-05-16T05:39:00;97717.91;;;10.44;100.00
11448;BME280;43755;49.736;8.734;2023-05-16T05:41:02;97717.91;;;10.44;100.00
11448;BME280;43755;49.736;8.734;2023-05-16T05:43:04;97721.34;;;10.46;100.00
11448;BME280;43755;49.736;8.734;2023-05-16T05:45:06;97725.25;;;10.56;100.00
11448;BME280;43755;49.736;8.734;2023-05-16T05:47:09;97728.75;;;10.57;100.00
11448;BME280;43755;49.736;8.734;2023-05-16T05:49:10;97727.69;;;10.61;100.00
11448;BME280;43755;49.736;8.734;2023-05-16T05:51:12;97728.69;;;10.58;100.00
11448;BME280;43755;49.736;8.734;2023-05-16T05:53:14;97740.13;;;10.59;100.00
11448;BME280;43755;49.736;8.734;2023-05-16T05:55:15;97737.34;;;10.62;100.00
11448;BME280;43755;49.736;8.734;2023-05-16T05:57:17;97744.91;;;10.51;100.00
11448;BME280;43755;49.736;8.734;2023-05-16T05:59:18;97742.28;;;10.51;100.00
11448;BME280;43755;49.736;8.734;2023-05-16T06:01:19;97742.28;;;10.51;100.00
11448;BME280;43755;49.736;8.734;2023-05-16T06:03:22;97744.06;;;10.50;100.00
11448;BME280;43755;49.736;8.734;2023-05-16T06:05:24;97739.50;;;10.54;100.00
11448;BME280;43755;49.736;8.734;2023-05-16T06:07:25;97746.56;;;10.53;100.00
11448;BME280;43755;49.736;8.734;2023-05-16T06:09:27;97744.91;;;10.51;100.00
11448;BME280;43755;49.736;8.734;2023-05-16T06:11:28;97750.06;;;10.54;100.00
11448;BME280;43755;49.736;8.734;2023-05-16T06:13:30;97742.16;;;10.54;100.00
11448;BME280;43755;49.736;8.734;2023-05-16T06:15:31;97751.22;;;10.48;100.00
11448;BME280;43755;49.736;8.734;2023-05-16T06:17:32;97752.22;;;10.46;100.00
11448;BME280;43755;49.736;8.734;2023-05-16T06:19:35;97747.63;;;10.49;100.00
11448;BME280;43755;49.736;8.734;2023-05-16T06:21:36;97753.28;;;10.42;100.00
11448;BME280;43755;49.736;8.734;2023-05-16T06:23:38;97755.13;;;10.40;100.00
11448;BME280;43755;49.736;8.734;2023-05-16T06:25:39;97751.56;;;10.41;100.00
11448;BME280;43755;49.736;8.734;2023-05-16T06:27:41;97758.84;;;10.36;100.00
11448;BME280;43755;49.736;8.734;2023-05-16T06:29:42;97761.50;;;10.36;100.00
11448;BME280;43755;49.736;8.734;2023-05-16T06:31:44;97757.06;;;10.36;100.00
11448;BME280;43755;49.736;8.734;2023-05-16T06:33:46;97766.97;;;10.31;100.00
11448;BME280;43755;49.736;8.734;2023-05-16T06:35:49;97764.91;;;10.38;100.00
11448;BME280;43755;49.736;8.734;2023-05-16T06:37:51;97764.78;;;10.41;100.00
11448;BME280;43755;49.736;8.734;2023-05-16T06:39:53;97763.06;;;10.40;100.00
11448;BME280;43755;49.736;8.734;2023-05-16T06:41:54;97765.78;;;10.38;100.00
11448;BME280;43755;49.736;8.734;2023-05-16T06:43:56;97768.50;;;10.37;100.00
11448;BME280;43755;49.736;8.734;2023-05-16T06:45:57;97763.13;;;10.38;100.00
11448;BME280;43755;49.736;8.734;2023-05-16T06:47:58;97767.50;;;10.39;100.00
11448;BME280;43755;49.736;8.734;2023-05-16T06:50:00;97772.78;;;10.39;100.00
11448;BME280;43755;49.736;8.734;2023-05-16T06:52:03;97769.56;;;10.33;100.00
11448;BME280;43755;49.736;8.734;2023-05-16T06:54:05;97768.69;;;10.32;100.00
11448;BME280;43755;49.736;8.734;2023-05-16T06:56:06;97773.91;;;10.34;100.00
11448;BME280;43755;49.736;8.734;2023-05-16T06:58:08;97789.06;;;10.30;100.00
11448;BME280;43755;49.736;8.734;2023-05-16T07:00:10;97788.06;;;10.33;100.00
11448;BME280;43755;49.736;8.734;2023-05-16T07:02:11;97787.41;;;10.27;100.00
11448;BME280;43755;49.736;8.734;2023-05-16T07:04:13;97794.44;;;10.29;100.00
11448;BME280;43755;49.736;8.734;2023-05-16T07:06:14;97792.75;;;10.26;100.00
11448;BME280;43755;49.736;8.734;2023-05-16T07:08:17;97800.00;;;10.22;100.00
11448;BME280;43755;49.736;8.734;2023-05-16T07:10:19;97807.84;;;10.24;100.00
11448;BME280;43755;49.736;8.734;2023-05-16T07:12:20;97808.56;;;10.27;100.00
11448;BME280;43755;49.736;8.734;2023-05-16T07:14:22;97823.78;;;10.22;100.00
11448;BME280;43755;49.736;8.734;2023-05-16T07:16:23;97830.38;;;10.12;100.00
11448;BME280;43755;49.736;8.734;2023-05-16T07:18:27;97826.13;;;10.08;100.00
11448;BME280;43755;49.736;8.734;2023-05-16T07:20:29;97827.19;;;10.04;100.00
11448;BME280;43755;49.736;8.734;2023-05-16T07:22:30;97840.47;;;10.03;100.00
11448;BME280;43755;49.736;8.734;2023-05-16T07:24:33;97828.00;;;10.06;100.00
11448;BME280;43755;49.736;8.734;2023-05-16T07:26:35;97835.94;;;10.06;100.00
11448;BME280;43755;49.736;8.734;2023-05-16T07:28:36;97848.53;;;10.00;100.00
11448;BME280;43755;49.736;8.734;2023-05-16T07:30:38;97840.88;;;9.94;100.00
11448;BME280;43755;49.736;8.734;2023-05-16T07:32:39;97842.72;;;9.92;100.00
11448;BME280;43755;49.736;8.734;2023-05-16T07:34:40;97849.78;;;9.91;100.00
11448;BME280;43755;49.736;8.734;2023-05-16T07:36:42;97851.75;;;9.86;100.00
11448;BME280;43755;49.736;8.734;2023-05-16T07:38:43;97854.47;;;9.84;100.00
11448;BME280;43755;49.736;8.734;2023-05-16T07:40:47;97859.03;;;9.81;100.00
11448;BME280;43755;49.736;8.734;2023-05-16T07:42:48;97855.41;;;9.83;100.00
11448;BME280;43755;49.736;8.734;2023-05-16T07:44:50;97861.31;;;9.68;100.00
11448;BME280;43755;49.736;8.734;2023-05-16T07:46:51;97857.34;;;9.78;100.00
11448;BME280;43755;49.736;8.734;2023-05-16T07:48:52;97873.16;;;9.80;100.00
11448;BME280;43755;49.736;8.734;2023-05-16T07:50:54;97872.34;;;9.78;100.00
11448;BME280;43755;49.736;8.734;2023-05-16T07:52:55;97865.41;;;9.75;100.00
11448;BME280;43755;49.736;8.734;2023-05-16T07:54:57;97872.53;;;9.73;100.00
11448;BME280;43755;49.736;8.734;2023-05-16T07:56:59;97879.81;;;9.68;100.00
11448;BME280;43755;49.736;8.734;2023-05-16T07:59:01;97879.81;;;9.68;100.00
11448;BME280;43755;49.736;8.734;2023-05-16T08:01:04;97885.94;;;9.69;100.00
11448;BME280;43755;49.736;8.734;2023-05-16T08:03:06;97884.41;;;9.63;100.00
11448;BME280;43755;49.736;8.734;2023-05-16T08:05:08;97884.28;;;9.66;100.00
11448;BME280;43755;49.736;8.734;2023-05-16T08:07:09;97882.63;;;9.64;100.00
11448;BME280;43755;49.736;8.734;2023-05-16T08:09:11;97888.28;;;9.55;100.00
11448;BME280;43755;49.736;8.734;2023-05-16T08:11:12;97889.34;;;9.51;100.00
11448;BME280;43755;49.736;8.734;2023-05-16T08:13:15;97885.78;;;9.52;100.00
11448;BME280;43755;49.736;8.734;2023-05-16T08:15:16;97883.25;;;9.49;100.00
11448;BME280;43755;49.736;8.734;2023-05-16T08:17:18;97881.31;;;9.54;100.00
11448;BME280;43755;49.736;8.734;2023-05-16T08:19:19;97884.28;;;9.44;100.00
11448;BME280;43755;49.736;8.734;2023-05-16T08:21:20;97876.78;;;9.56;100.00
11448;BME280;43755;49.736;8.734;2023-05-16T08:23:22;97881.97;;;9.59;100.00
11448;BME280;43755;49.736;8.734;2023-05-16T08:25:23;97878.56;;;9.55;100.00
11448;BME280;43755;49.736;8.734;2023-05-16T08:27:25;97879.81;;;9.68;100.00
11448;BME280;43755;49.736;8.734;2023-05-16T08:29:28;97882.50;;;9.67;100.00
11448;BME280;43755;49.736;8.734;2023-05-16T08:31:30;97882.09;;;9.77;100.00
11448;BME280;43755;49.736;8.734;2023-05-16T08:33:32;97873.75;;;9.86;100.00
11448;BME280;43755;49.736;8.734;2023-05-16T08:35:33;97879.25;;;9.82;100.00
11448;BME280;43755;49.736;8.734;2023-05-16T08:37:35;97892.66;;;9.77;100.00
11448;BME280;43755;49.736;8.734;2023-05-16T08:39:37;97880.28;;;9.78;100.00
11448;BME280;43755;49.736;8.734;2023-05-16T08:41:39;97880.34;;;9.76;100.00
11448;BME280;43755;49.736;8.734;2023-05-16T08:43:41;97879.59;;;9.95;100.00
11448;BME280;43755;49.736;8.734;2023-05-16T08:45:44;97883.63;;;10.03;100.00
11448;BME280;43755;49.736;8.734;2023-05-16T08:47:47;97882.50;;;10.09;100.00
11448;BME280;43755;49.736;8.734;2023-05-16T08:49:50;97878.13;;;10.08;100.00
11448;BME280;43755;49.736;8.734;2023-05-16T08:51:55;97882.34;;;9.92;100.00
11448;BME280;43755;49.736;8.734;2023-05-16T08:54:02;97880.47;;;9.73;100.00
11448;BME280;43755;49.736;8.734;2023-05-16T08:56:04;97875.56;;;9.64;100.00
11448;BME280;43755;49.736;8.734;2023-05-16T08:58:07;97887.59;;;9.50;100.00
11448;BME280;43755;49.736;8.734;2023-05-16T09:00:09;97890.56;;;9.42;100.00
11448;BME280;43755;49.736;8.734;2023-05-16T09:02:13;97899.69;;;9.33;100.00
11448;BME280;43755;49.736;8.734;2023-05-16T09:04:15;97905.75;;;9.14;100.00
11448;BME280;43755;49.736;8.734;2023-05-16T09:06:16;97933.41;;;8.80;100.00
11448;BME280;43755;49.736;8.734;2023-05-16T09:08:18;97914.88;;;8.58;100.00
11448;BME280;43755;49.736;8.734;2023-05-16T09:10:20;97913.63;;;8.69;100.00
11448;BME280;43755;49.736;8.734;2023-05-16T09:12:21;97921.09;;;8.56;100.00
11448;BME280;43755;49.736;8.734;2023-05-16T09:14:22;97929.59;;;8.41;100.00
11448;BME280;43755;49.736;8.734;2023-05-16T09:16:24;97915.06;;;8.54;100.00
11448;BME280;43755;49.736;8.734;2023-05-16T09:18:27;97913.03;;;8.60;100.00
11448;BME280;43755;49.736;8.734;2023-05-16T09:20:29;97912.53;;;8.74;100.00
11448;BME280;43755;49.736;8.734;2023-05-16T09:22:30;97901.25;;;8.71;100.00
11448;BME280;43755;49.736;8.734;2023-05-16T09:24:31;97912.72;;;8.93;100.00
11448;BME280;43755;49.736;8.734;2023-05-16T09:26:34;97907.84;;;9.06;100.00
11448;BME280;43755;49.736;8.734;2023-05-16T09:28:36;97911.88;;;9.14;100.00
11448;BME280;43755;49.736;8.734;2023-05-16T09:30:38;97906.38;;;9.20;100.00
11448;BME280;43755;49.736;8.734;2023-05-16T09:32:42;97914.00;;;9.28;100.00
11448;BME280;43755;49.736;8.734;2023-05-16T09:34:46;97920.72;;;9.36;100.00
11448;BME280;43755;49.736;8.734;2023-05-16T09:36:53;97918.66;;;9.43;100.00
11448;BME280;43755;49.736;8.734;2023-05-16T09:38:54;97924.28;;;9.57;100.00
11448;BME280;43755;49.736;8.734;2023-05-16T09:40:56;97929.44;;;9.60;100.00
11448;BME280;43755;49.736;8.734;2023-05-16T09:43:02;97929.94;;;9.48;100.00
11448;BME280;43755;49.736;8.734;2023-05-16T09:45:05;97922.13;;;9.45;100.00
11448;BME280;43755;49.736;8.734;2023-05-16T09:47:07;97932.63;;;9.68;100.00
11448;BME280;43755;49.736;8.734;2023-05-16T09:49:10;97925.56;;;9.69;100.00
11448;BME280;43755;49.736;8.734;2023-05-16T09:51:13;97928.66;;;9.58;100.00
11448;BME280;43755;49.736;8.734;2023-05-16T09:53:15;97935.75;;;9.78;100.00
11448;BME280;43755;49.736;8.734;2023-05-16T09:55:16;97937.38;;;9.82;100.00
11448;BME280;43755;49.736;8.734;2023-05-16T09:57:18;97925.13;;;10.01;100.00
11448;BME280;43755;49.736;8.734;2023-05-16T09:59:20;97943.72;;;10.20;100.00
11448;BME280;43755;49.736;8.734;2023-05-16T10:01:22;97932.66;;;10.10;100.00
11448;BME280;43755;49.736;8.734;2023-05-16T10:03:24;97934.25;;;10.14;100.00
11448;BME280;43755;49.736;8.734;2023-05-16T10:05:26;97937.16;;;9.86;100.00
11448;BME280;43755;49.736;8.734;2023-05-16T10:07:30;97938.84;;;9.89;100.00
11448;BME280;43755;49.736;8.734;2023-05-16T10:09:33;97952.09;;;9.88;100.00
11448;BME280;43755;49.736;8.734;2023-05-16T10:11:34;97944.97;;;9.90;100.00
11448;BME280;43755;49.736;8.734;2023-05-16T10:13:36;97948.66;;;9.85;100.00
11448;BME280;43755;49.736;8.734;2023-05-16T10:15:38;97939.41;;;9.96;100.00
11448;BME280;43755;49.736;8.734;2023-05-16T10:17:41;97941.66;;;9.84;100.00
11448;BME280;43755;49.736;8.734;2023-05-16T10:19:44;97940.03;;;10.02;100.00
11448;BME280;43755;49.736;8.734;2023-05-16T10:21:50;97936.00;;;10.14;100.00
11448;BME280;43755;49.736;8.734;2023-05-16T10:23:55;97942.16;;;10.14;100.00
11448;BME280;43755;49.736;8.734;2023-05-16T10:25:59;97938.66;;;10.14;100.00
11448;BME280;43755;49.736;8.734;2023-05-16T10:28:01;97943.34;;;10.29;100.00
11448;BME280;43755;49.736;8.734;2023-05-16T10:30:03;97950.69;;;10.43;100.00
11448;BME280;43755;49.736;8.734;2023-05-16T10:32:07;97945.84;;;10.32;100.00
11448;BME280;43755;49.736;8.734;2023-05-16T10:34:09;97949.56;;;10.28;100.00
11448;BME280;43755;49.736;8.734;2023-05-16T10:36:10;97958.69;;;10.41;100.00
11448;BME280;43755;49.736;8.734;2023-05-16T10:38:14;97951.41;;;10.26;100.00
11448;BME280;43755;49.736;8.734;2023-05-16T10:40:18;97955.16;;;10.20;100.00
11448;BME280;43755;49.736;8.734;2023-05-16T10:42:20;97955.09;;;10.22;100.00